Time;durP1;ratioP1;P1;durP2;ratioP2;P2;SDS_P1;SDS_P2;PMS_P1;PMS_P2;Temp;Humidity;BMP_temperature;BMP_pressure;BME280_temperature;BME280_humidity;BME280_pressure;Samples;Min_cycle;Max_cycle;Signal;HPM_P1;HPM_P2
2022/08/13 00:01:52;;;;;;;13.43;12.05;;;;;;;18.12;69.97;100451.59;2130667;82;20996;-69
2022/08/13 00:04:59;;;;;;;16.77;12.00;;;;;;;18.10;70.12;100451.81;2066510;83;21051;-69
2022/08/13 00:07:59;;;;;;;12.37;11.08;;;;;;;18.09;70.27;100459.54;2064978;84;21017;-68
2022/08/13 00:11:00;;;;;;;13.55;12.30;;;;;;;18.08;70.28;100455.73;2098660;83;21049;-69
2022/08/13 00:14:04;;;;;;;13.03;11.30;;;;;;;18.05;70.42;100453.47;2102605;83;21582;-68
2022/08/13 00:17:11;;;;;;;14.40;12.82;;;;;;;18.01;70.59;100450.87;2117307;82;21795;-69
2022/08/13 00:20:12;;;;;;;14.60;13.15;;;;;;;17.99;70.74;100444.38;2134048;82;21029;-69
2022/08/13 00:23:14;;;;;;;18.37;13.43;;;;;;;17.96;70.86;100455.51;2130025;83;21508;-69
2022/08/13 00:26:16;;;;;;;15.58;14.07;;;;;;;17.94;71.11;100447.37;2130668;82;21039;-69
2022/08/13 00:29:17;;;;;;;15.70;14.10;;;;;;;17.95;71.22;100458.41;2130973;82;21479;-68
2022/08/13 00:32:21;;;;;;;17.48;14.25;;;;;;;17.96;71.34;100452.00;2132907;82;21004;-68
2022/08/13 00:35:21;;;;;;;15.72;13.35;;;;;;;17.98;71.57;100453.97;2131426;82;21841;-69
2022/08/13 00:38:29;;;;;;;15.08;13.00;;;;;;;18.01;71.67;100448.19;2129689;82;21033;-68
2022/08/13 00:41:40;;;;;;;15.32;13.45;;;;;;;18.02;71.64;100453.86;2097308;83;21538;-68
2022/08/13 00:44:43;;;;;;;13.55;12.18;;;;;;;18.00;71.84;100447.89;2099416;83;21051;-69
2022/08/13 00:51:08;;;;;;;15.75;12.95;;;;;;;18.02;72.10;100441.77;2099950;84;21616;-69
2022/08/13 00:54:12;;;;;;;12.82;11.25;;;;;;;18.05;72.42;100434.67;2096864;83;21099;-68
2022/08/13 00:57:13;;;;;;;13.70;12.28;;;;;;;18.08;72.49;100432.91;2095727;84;21123;-72
2022/08/13 01:00:22;;;;;;;13.30;11.50;;;;;;;18.12;72.42;100427.42;2134659;82;20946;-68
2022/08/13 01:03:26;;;;;;;14.73;12.25;;;;;;;18.18;72.35;100423.89;2134985;82;21008;-69
2022/08/13 01:06:27;;;;;;;14.05;11.18;;;;;;;18.22;72.37;100423.80;2104248;84;21911;-68
2022/08/13 01:09:32;;;;;;;11.65;10.45;;;;;;;18.26;72.70;100425.02;2125221;82;21021;-68
2022/08/13 01:12:36;;;;;;;12.05;10.78;;;;;;;18.31;72.73;100425.74;2130133;82;21512;-69
2022/08/13 01:15:40;;;;;;;12.07;10.63;;;;;;;18.38;72.81;100421.16;2103758;83;21055;-68
2022/08/13 01:18:48;;;;;;;12.18;10.78;;;;;;;18.44;73.14;100420.31;2134251;82;21027;-69
2022/08/13 01:21:52;;;;;;;12.37;11.12;;;;;;;18.50;73.25;100416.81;2127933;82;21065;-68
2022/08/13 01:24:53;;;;;;;12.18;10.98;;;;;;;18.58;73.28;100414.39;2130244;82;21506;-68
2022/08/13 01:27:54;;;;;;;12.10;10.90;;;;;;;18.64;73.55;100411.37;2139727;81;21056;-68
2022/08/13 01:31:04;;;;;;;12.15;10.93;;;;;;;18.65;73.63;100409.83;2138149;81;21048;-68
2022/08/13 01:34:03;;;;;;;12.25;11.15;;;;;;;18.68;73.52;100416.64;2138513;81;21028;-68
2022/08/13 01:37:05;;;;;;;11.85;10.63;;;;;;;18.70;73.52;100407.33;2101265;83;21481;-68
2022/08/13 01:40:09;;;;;;;12.18;10.68;;;;;;;18.72;73.62;100399.04;2100834;83;21653;-70
2022/08/13 01:43:10;;;;;;;12.13;10.93;;;;;;;18.72;73.59;100399.04;2139771;82;21089;-68
2022/08/13 01:46:12;;;;;;;12.03;10.85;;;;;;;18.72;73.79;100396.34;2133836;82;21007;-68
2022/08/13 01:52:33;;;;;;;12.85;11.40;;;;;;;18.74;73.79;100403.72;2135091;82;21054;-69
2022/08/13 01:55:42;;;;;;;12.93;10.93;;;;;;;18.74;73.86;100395.13;2093907;83;21055;-68
2022/08/13 01:58:47;;;;;;;12.85;11.48;;;;;;;18.79;74.23;100395.84;2135035;82;21587;-68
2022/08/13 02:01:46;;;;;;;12.03;10.72;;;;;;;18.82;74.10;100398.11;2136918;81;21046;-68
2022/08/13 02:04:48;;;;;;;14.90;11.10;;;;;;;18.83;74.10;100406.47;2138354;81;21053;-68
2022/08/13 02:07:50;;;;;;;12.18;11.08;;;;;;;18.81;74.15;100397.81;2141752;81;21000;-68
2022/08/13 02:10:54;;;;;;;12.00;10.82;;;;;;;18.82;74.37;100398.11;2102432;84;21022;-68
2022/08/13 02:13:56;;;;;;;13.83;12.43;;;;;;;18.80;74.50;100393.45;2130870;83;20978;-69
2022/08/13 02:16:57;;;;;;;12.95;11.63;;;;;;;18.74;74.58;100391.62;2128427;82;21036;-68
2022/08/13 02:19:58;;;;;;;14.07;11.73;;;;;;;18.64;74.92;100390.72;2090553;84;21572;-68
2022/08/13 02:22:59;;;;;;;13.00;11.80;;;;;;;18.57;75.37;100394.76;2131825;82;21056;-70
2022/08/13 02:26:05;;;;;;;12.33;11.22;;;;;;;18.47;76.13;100390.86;2130140;82;20985;-68
2022/08/13 02:29:07;;;;;;;12.55;11.45;;;;;;;18.33;76.68;100385.55;2100295;84;21000;-69
2022/08/13 02:32:08;;;;;;;11.73;10.58;;;;;;;18.21;77.20;100391.25;2141397;81;21030;-67
2022/08/13 02:35:09;;;;;;;12.10;11.00;;;;;;;18.10;77.81;100381.14;2100102;83;21039;-68
2022/08/13 02:38:11;;;;;;;16.27;11.68;;;;;;;18.06;77.69;100379.93;2129027;82;21061;-68
2022/08/13 02:44:32;;;;;;;12.10;10.95;;;;;;;17.98;77.97;100380.97;2100387;84;21018;-68
2022/08/13 02:47:33;;;;;;;13.20;11.90;;;;;;;17.97;78.05;100375.82;2102169;83;20989;-68
2022/08/13 02:50:41;;;;;;;13.45;11.33;;;;;;;17.95;78.15;100377.36;2129393;82;21597;-68
2022/08/13 02:53:39;;;;;;;14.98;12.55;;;;;;;17.97;78.19;100371.80;2135263;81;21054;-69
2022/08/13 02:56:41;;;;;;;13.45;12.20;;;;;;;17.97;78.39;100369.93;2093235;84;20999;-70
2022/08/13 02:59:42;;;;;;;13.40;12.15;;;;;;;17.95;78.42;100369.30;2098807;83;21040;-68
2022/08/13 03:02:45;;;;;;;14.90;12.50;;;;;;;17.98;78.55;100364.86;2103912;82;21460;-69
2022/08/13 03:05:46;;;;;;;14.43;12.88;;;;;;;17.98;78.58;100359.48;2130652;82;21027;-68
2022/08/13 03:08:52;;;;;;;14.87;13.15;;;;;;;18.05;78.75;100360.84;2136978;82;20973;-69
2022/08/13 03:11:53;;;;;;;13.78;12.00;;;;;;;18.10;78.82;100352.95;2130811;82;20981;-68
2022/08/13 03:14:55;;;;;;;16.07;12.73;;;;;;;18.12;78.65;100346.86;2129730;82;21039;-68
2022/08/13 03:17:56;;;;;;;14.33;13.03;;;;;;;18.14;78.72;100354.20;2125903;82;21015;-69
2022/08/13 03:20:58;;;;;;;13.45;12.25;;;;;;;18.10;78.75;100349.78;2086146;85;21272;-68
2022/08/13 03:24:00;;;;;;;14.75;13.25;;;;;;;18.07;78.87;100354.72;2112280;83;21045;-69
2022/08/13 03:27:02;;;;;;;14.23;12.53;;;;;;;18.05;78.99;100359.50;2113542;83;21501;-69
2022/08/13 03:30:04;;;;;;;13.40;12.18;;;;;;;18.04;79.21;100352.45;2112937;83;20936;-70
2022/08/13 03:33:11;;;;;;;14.58;13.28;;;;;;;17.97;79.94;100353.83;2123016;82;20973;-72
2022/08/13 03:36:13;;;;;;;14.78;13.35;;;;;;;17.88;79.77;100341.66;2111685;83;21018;-69
2022/08/13 03:39:14;;;;;;;15.30;13.90;;;;;;;17.89;80.10;100348.15;2110917;83;20983;-69
2022/08/13 03:42:15;;;;;;;14.93;13.43;;;;;;;17.88;80.27;100348.38;2112825;83;21086;-71
2022/08/13 03:45:20;;;;;;;15.13;13.65;;;;;;;17.83;80.46;100349.52;2112369;83;20956;-69
2022/08/13 03:48:22;;;;;;;15.30;13.80;;;;;;;17.82;80.52;100354.06;2110452;83;20997;-69
2022/08/13 03:51:23;;;;;;;13.70;12.50;;;;;;;17.83;80.81;100348.17;2111924;83;21061;-69
2022/08/13 03:54:24;;;;;;;14.80;13.30;;;;;;;17.82;81.18;100350.03;2113053;83;20928;-69
2022/08/13 03:57:25;;;;;;;17.65;14.47;;;;;;;17.78;81.43;100351.47;2111558;83;21511;-69
2022/08/13 04:00:29;;;;;;;15.45;13.85;;;;;;;17.75;81.55;100345.67;2113599;83;21536;-68
2022/08/13 04:03:37;;;;;;;14.85;13.22;;;;;;;17.74;81.80;100350.22;2110978;83;21006;-68
2022/08/13 04:06:38;;;;;;;16.10;14.55;;;;;;;17.70;82.44;100348.44;2111832;83;21533;-68
2022/08/13 04:09:39;;;;;;;16.73;15.13;;;;;;;17.67;82.64;100340.81;2114454;83;21081;-68
2022/08/13 04:12:40;;;;;;;17.23;14.73;;;;;;;17.65;83.38;100338.02;2112111;83;21002;-68
2022/08/13 04:15:44;;;;;;;16.40;14.80;;;;;;;17.65;83.09;100337.53;2111004;83;21030;-68
2022/08/13 04:18:46;;;;;;;16.00;14.33;;;;;;;17.64;83.33;100337.20;2123743;83;21040;-68
2022/08/13 04:21:47;;;;;;;16.87;15.23;;;;;;;17.63;83.17;100334.22;2135024;82;20966;-68
2022/08/13 04:24:48;;;;;;;15.90;14.33;;;;;;;17.65;83.18;100332.66;2129947;83;21366;-69
2022/08/13 04:27:50;;;;;;;17.40;15.63;;;;;;;17.69;83.73;100328.55;2129876;83;21022;-69
2022/08/13 04:30:51;;;;;;;15.72;14.23;;;;;;;17.69;83.83;100328.55;2131590;82;21567;-67
2022/08/13 04:33:52;;;;;;;17.50;15.60;;;;;;;17.68;83.86;100325.53;2130519;82;20973;-68
2022/08/13 04:36:53;;;;;;;17.30;15.45;;;;;;;17.70;83.95;100328.84;2129057;83;21045;-68
2022/08/13 04:39:54;;;;;;;17.75;15.95;;;;;;;17.71;84.29;100327.83;2127988;82;21001;-68
2022/08/13 04:42:55;;;;;;;18.37;16.37;;;;;;;17.68;84.47;100322.36;2129565;83;21041;-67
2022/08/13 04:45:58;;;;;;;19.92;17.45;;;;;;;17.67;84.78;100327.91;2130281;82;20977;-68
2022/08/13 04:49:00;;;;;;;19.15;17.15;;;;;;;17.66;84.46;100325.75;2129887;82;21917;-69
2022/08/13 04:52:01;;;;;;;20.77;17.92;;;;;;;17.66;84.84;100331.13;2132014;83;20968;-68
2022/08/13 04:55:04;;;;;;;20.85;18.65;;;;;;;17.67;84.81;100337.30;2124849;83;21422;-71
2022/08/13 04:58:08;;;;;;;22.07;19.62;;;;;;;17.67;84.94;100334.10;2110742;83;21036;-69
2022/08/13 05:01:10;;;;;;;25.25;21.05;;;;;;;17.70;84.84;100336.89;2130402;82;20991;-68
2022/08/13 05:04:11;;;;;;;23.32;20.80;;;;;;;17.77;84.91;100332.88;2130781;82;21295;-71
2022/08/13 05:07:13;;;;;;;23.77;21.27;;;;;;;17.83;84.78;100335.57;2129877;83;21007;-68
2022/08/13 05:10:14;;;;;;;25.05;21.82;;;;;;;17.85;84.69;100331.31;2133674;83;21053;-71
2022/08/13 05:13:27;;;;;;;23.70;21.12;;;;;;;17.84;84.80;100326.99;2130947;82;20966;-68
2022/08/13 05:16:28;;;;;;;22.62;20.20;;;;;;;17.75;84.85;100313.47;2127130;82;21672;-68
2022/08/13 05:19:51;;;;;;;21.93;19.62;;;;;;;17.90;84.90;100332.34;2114978;83;21063;-68
2022/08/13 05:22:56;;;;;;;19.73;17.77;;;;;;;17.96;85.06;100328.52;2021495;87;21044;-68
2022/08/13 05:25:57;;;;;;;20.72;17.02;;;;;;;17.95;84.92;100329.04;2020884;87;21033;-69
2022/08/13 05:29:05;;;;;;;19.87;17.50;;;;;;;17.97;85.12;100327.50;2020189;87;21017;-68
2022/08/13 05:32:08;;;;;;;18.95;17.12;;;;;;;17.98;85.06;100331.83;2023156;87;21037;-68
2022/08/13 05:35:11;;;;;;;19.75;17.75;;;;;;;17.98;85.23;100326.45;2023214;87;21060;-69
2022/08/13 05:38:12;;;;;;;19.20;17.30;;;;;;;17.97;85.32;100322.13;2021460;87;21057;-69
2022/08/13 05:41:13;;;;;;;19.90;17.87;;;;;;;17.97;85.43;100324.81;2021711;87;21587;-69
2022/08/13 05:44:14;;;;;;;19.62;17.57;;;;;;;18.02;85.57;100324.98;2021683;87;21540;-69
2022/08/13 05:47:17;;;;;;;19.10;17.10;;;;;;;18.05;85.69;100320.04;2022715;87;21618;-69
2022/08/13 05:50:18;;;;;;;19.10;17.30;;;;;;;18.09;85.96;100323.94;2021619;87;21021;-69
2022/08/13 05:53:19;;;;;;;20.92;18.82;;;;;;;18.11;85.86;100325.09;1999377;87;21608;-69
2022/08/13 05:56:24;;;;;;;18.82;17.02;;;;;;;18.14;85.85;100321.45;2021896;87;21065;-70
2022/08/13 06:06:08;;;;;;;22.77;20.40;;;;;;;18.25;86.39;100315.95;2020788;87;21037;-69
2022/08/13 06:09:09;;;;;;;20.00;18.07;;;;;;;18.29;86.46;100314.47;2020162;87;21055;-69
2022/08/13 06:12:11;;;;;;;21.93;19.70;;;;;;;18.38;86.75;100316.40;2023278;87;21107;-71
2022/08/13 06:15:12;;;;;;;25.70;20.00;;;;;;;18.38;86.95;100313.71;2022703;87;21013;-68
2022/08/13 06:18:15;;;;;;;21.82;18.87;;;;;;;18.41;87.24;100320.00;2021794;87;21041;-69
2022/08/13 06:21:18;;;;;;;22.40;20.05;;;;;;;18.44;88.09;100318.75;2040297;85;21126;-68
2022/08/13 06:24:19;;;;;;;21.52;19.32;;;;;;;18.44;87.58;100318.23;2066901;84;20951;-68
2022/08/13 06:27:25;;;;;;;20.70;18.52;;;;;;;18.45;87.60;100320.42;2065799;85;21013;-69
2022/08/13 06:30:30;;;;;;;20.70;18.62;;;;;;;18.47;88.03;100325.89;2064158;84;21008;-69
2022/08/13 06:33:34;;;;;;;21.20;19.02;;;;;;;18.48;87.92;100321.33;2067388;85;21542;-68
2022/08/13 06:36:37;;;;;;;21.80;19.67;;;;;;;18.44;88.70;100311.51;2065980;84;21041;-69
2022/08/13 06:39:39;;;;;;;21.23;19.02;;;;;;;18.43;88.29;100315.77;2067753;85;21025;-72
2022/08/13 06:42:44;;;;;;;20.55;18.55;;;;;;;18.46;87.80;100322.05;2064988;85;21039;-70
2022/08/13 06:45:46;;;;;;;21.75;19.65;;;;;;;18.48;88.00;100321.33;2066259;84;21590;-72
2022/08/13 06:48:47;;;;;;;21.62;19.32;;;;;;;18.48;87.74;100319.47;2066038;85;21061;-69
2022/08/13 06:51:49;;;;;;;22.27;20.08;;;;;;;18.53;88.01;100314.28;2065309;84;22071;-69
2022/08/13 06:54:50;;;;;;;23.77;19.87;;;;;;;18.55;87.73;100317.55;2066987;85;20954;-69
2022/08/13 06:57:52;;;;;;;21.20;19.20;;;;;;;18.59;87.47;100317.97;2064184;85;21009;-69
2022/08/13 07:00:56;;;;;;;19.92;17.92;;;;;;;18.63;87.42;100319.17;2065994;84;21024;-69
2022/08/13 07:03:57;;;;;;;21.30;19.17;;;;;;;18.68;87.59;100316.67;2065445;84;21107;-69
2022/08/13 07:06:59;;;;;;;22.13;19.65;;;;;;;18.71;87.26;100314.08;2066395;85;21069;-69
2022/08/13 07:10:02;;;;;;;21.05;19.05;;;;;;;18.75;87.29;100315.31;2066696;84;21577;-69
2022/08/13 07:13:05;;;;;;;21.37;19.05;;;;;;;18.81;87.17;100317.98;2067417;84;20954;-69
2022/08/13 07:16:08;;;;;;;22.07;19.98;;;;;;;18.85;87.09;100318.89;2065175;85;21052;-68
2022/08/13 07:19:12;;;;;;;20.37;18.27;;;;;;;18.89;86.92;100308.00;2064833;85;21111;-68
2022/08/13 07:22:13;;;;;;;21.35;19.25;;;;;;;18.95;87.34;100309.81;2062750;85;21084;-69
2022/08/13 07:25:15;;;;;;;19.95;17.95;;;;;;;18.95;87.04;100311.16;2034164;85;21412;-69
2022/08/13 07:28:19;;;;;;;23.90;20.23;;;;;;;18.98;87.23;100309.41;2056509;85;21013;-70
2022/08/13 07:31:27;;;;;;;20.52;18.52;;;;;;;19.02;87.07;100304.70;2059368;85;20975;-68
2022/08/13 07:34:32;;;;;;;20.30;18.30;;;;;;;19.12;87.06;100308.27;2056750;85;21008;-69
2022/08/13 07:37:33;;;;;;;21.07;18.67;;;;;;;19.24;86.79;100309.20;2057513;85;21083;-69
2022/08/13 07:40:34;;;;;;;21.05;18.95;;;;;;;19.31;86.44;100309.67;2062940;85;20969;-69
2022/08/13 07:43:39;;;;;;;20.55;18.32;;;;;;;19.37;86.45;100317.70;2059864;85;21586;-69
2022/08/13 07:46:42;;;;;;;22.80;18.23;;;;;;;19.45;86.52;100316.05;2056499;85;21069;-69
2022/08/13 07:49:46;;;;;;;21.40;19.20;;;;;;;19.54;86.20;100323.35;2060640;85;21542;-69
2022/08/13 07:52:55;;;;;;;23.40;19.02;;;;;;;19.54;85.54;100317.12;2058867;85;21107;-69
2022/08/13 07:55:56;;;;;;;20.27;18.10;;;;;;;19.51;85.37;100322.42;2060839;85;21033;-71
2022/08/13 07:59:02;;;;;;;22.93;20.65;;;;;;;19.44;85.11;100335.13;2061949;85;21621;-70
2022/08/13 08:02:08;;;;;;;25.40;22.00;;;;;;;19.38;85.37;100330.62;2060115;85;21067;-71
2022/08/13 08:05:12;;;;;;;30.75;21.82;;;;;;;19.35;85.61;100330.55;2058220;85;21068;-74
2022/08/13 08:08:13;;;;;;;23.05;20.65;;;;;;;19.31;85.72;100336.04;2059422;85;20973;-71
2022/08/13 08:12:32;;;;;;;25.43;22.48;;;;;;;19.27;85.83;100332.16;2057634;85;22106;-71
2022/08/13 08:14:25;;;;;;;23.73;21.27;;;;;;;19.30;85.97;100333.59;2058493;85;21107;-71
2022/08/13 08:17:26;;;;;;;23.83;21.50;;;;;;;19.31;86.18;100341.95;2062154;85;21009;-72
2022/08/13 08:20:28;;;;;;;24.23;21.12;;;;;;;19.30;86.20;100334.94;2061681;85;21466;-72
2022/08/13 08:23:29;;;;;;;24.50;21.90;;;;;;;19.30;86.23;100343.00;2070791;85;21048;-73
2022/08/13 08:26:34;;;;;;;25.12;22.25;;;;;;;19.30;86.36;100342.48;2071889;85;21037;-71
2022/08/13 08:29:40;;;;;;;22.70;20.30;;;;;;;19.27;86.50;100341.56;2069961;84;21086;-71
2022/08/13 08:32:43;;;;;;;23.27;20.88;;;;;;;19.30;86.72;100336.27;2069668;84;21641;-73
2022/08/13 08:35:45;;;;;;;24.87;22.02;;;;;;;19.34;87.04;100342.86;2069988;84;20950;-71
2022/08/13 08:45:34;;;;;;;23.70;20.75;;;;;;;19.50;87.10;100342.31;2069868;84;21588;-72
2022/08/13 08:48:36;;;;;;;24.00;21.60;;;;;;;19.59;87.15;100334.25;2071799;84;21053;-70
2022/08/13 08:51:37;;;;;;;23.27;20.90;;;;;;;19.67;87.23;100328.63;2069919;84;21092;-70
2022/08/13 08:54:40;;;;;;;22.32;20.10;;;;;;;19.78;86.92;100328.95;2071003;85;20973;-70
2022/08/13 08:57:46;;;;;;;23.00;20.60;;;;;;;19.91;87.29;100326.14;2050501;85;21044;-69
2022/08/13 09:00:49;;;;;;;21.68;19.60;;;;;;;20.10;87.29;100317.52;2070908;85;21082;-70
2022/08/13 09:03:56;;;;;;;21.02;18.92;;;;;;;20.24;87.05;100319.02;2070187;84;20990;-70
2022/08/13 09:06:58;;;;;;;17.77;15.98;;;;;;;20.34;86.54;100325.23;2070816;85;22331;-70
2022/08/13 09:09:59;;;;;;;20.02;17.67;;;;;;;20.32;86.16;100326.80;2070839;85;22319;-71
2022/08/13 09:13:02;;;;;;;17.75;16.10;;;;;;;20.34;86.19;100317.16;2072005;85;21036;-70
2022/08/13 09:16:04;;;;;;;19.40;17.50;;;;;;;20.37;85.86;100325.59;2070365;84;21083;-70
2022/08/13 09:19:08;;;;;;;19.07;17.27;;;;;;;20.34;85.67;100325.23;2070896;85;21092;-70
2022/08/13 09:22:14;;;;;;;19.70;17.50;;;;;;;20.38;85.87;100327.27;2068806;85;21090;-70
2022/08/13 09:25:16;;;;;;;19.12;17.37;;;;;;;20.57;86.49;100322.68;2066719;84;21034;-72
2022/08/13 09:28:24;;;;;;;18.65;16.85;;;;;;;20.65;85.85;100324.78;2067701;84;21079;-70
2022/08/13 09:31:26;;;;;;;16.87;15.10;;;;;;;20.71;86.09;100319.81;2067046;84;21537;-70
2022/08/13 09:34:27;;;;;;;16.87;15.23;;;;;;;20.78;85.94;100320.56;2044902;85;21003;-70
2022/08/13 09:37:31;;;;;;;15.45;13.85;;;;;;;20.92;85.52;100318.47;2066973;85;20970;-70
2022/08/13 09:40:37;;;;;;;14.85;13.50;;;;;;;21.09;85.27;100321.33;2065456;84;20977;-70
2022/08/13 09:43:41;;;;;;;14.43;13.03;;;;;;;21.23;85.18;100318.72;2064902;84;21028;-70
2022/08/13 09:46:42;;;;;;;13.85;12.47;;;;;;;21.35;84.23;100311.48;2065759;84;20959;-70
2022/08/13 09:49:48;;;;;;;14.38;12.98;;;;;;;21.39;83.31;100309.16;2066516;84;21075;-71
2022/08/13 09:52:46;;;;;;;15.15;13.65;;;;;;;21.47;83.30;100310.98;2066580;85;21526;-69
2022/08/13 09:55:47;;;;;;;15.15;13.68;;;;;;;21.55;83.40;100307.66;2065397;85;20990;-71
2022/08/13 09:58:50;;;;;;;17.40;15.80;;;;;;;21.49;83.19;100311.58;2066078;85;20958;-70
2022/08/13 10:01:55;;;;;;;16.90;15.25;;;;;;;21.36;82.31;100311.77;2066520;84;21458;-70
2022/08/13 10:04:57;;;;;;;16.25;14.40;;;;;;;21.29;82.73;100308.37;2066832;84;21076;-71
2022/08/13 10:07:57;;;;;;;16.70;15.20;;;;;;;21.28;82.33;100306.70;2067490;84;20983;-69
2022/08/13 10:10:58;;;;;;;17.62;15.90;;;;;;;21.31;82.38;100306.77;2064758;84;21574;-69
2022/08/13 10:13:59;;;;;;;17.45;15.63;;;;;;;21.30;82.27;100304.60;2065672;84;20989;-69
2022/08/13 10:17:02;;;;;;;15.23;13.83;;;;;;;21.24;81.65;100307.70;2066686;85;21372;-72
2022/08/13 10:20:04;;;;;;;15.43;13.88;;;;;;;21.24;82.60;100302.84;2066330;85;20992;-69
2022/08/13 10:23:13;;;;;;;17.02;15.28;;;;;;;21.24;81.91;100298.80;2044152;84;21006;-69
2022/08/13 10:26:18;;;;;;;18.07;16.27;;;;;;;21.27;82.07;100295.63;2067078;85;21020;-69
2022/08/13 10:29:20;;;;;;;15.80;13.45;;;;;;;21.19;81.84;100301.36;2066220;84;21600;-70
2022/08/13 10:32:21;;;;;;;14.10;12.70;;;;;;;21.17;81.04;100294.02;2066693;85;21510;-71
2022/08/13 10:35:30;;;;;;;13.30;11.78;;;;;;;21.11;80.93;100303.05;2065159;84;21030;-69
2022/08/13 10:38:32;;;;;;;13.83;12.53;;;;;;;21.08;81.03;100298.11;2064647;84;21592;-70
2022/08/13 10:41:33;;;;;;;14.50;13.00;;;;;;;21.09;80.82;100299.75;2068732;84;21061;-69
2022/08/13 10:44:34;;;;;;;15.85;14.35;;;;;;;21.04;80.52;100294.53;2066002;84;21054;-69
2022/08/13 10:47:46;;;;;;;14.90;13.45;;;;;;;21.00;80.71;100285.24;2066240;84;20983;-68
2022/08/13 10:50:49;;;;;;;13.28;11.97;;;;;;;20.96;80.52;100277.33;2066126;84;21055;-70
2022/08/13 10:53:58;;;;;;;14.53;12.35;;;;;;;21.01;80.57;100272.60;2066341;84;21857;-69
2022/08/13 10:56:59;;;;;;;13.28;11.63;;;;;;;21.04;80.68;100280.23;2064827;84;20975;-69
2022/08/13 11:00:00;;;;;;;14.33;12.82;;;;;;;21.10;80.83;100282.53;2066662;84;21107;-70
2022/08/13 11:03:01;;;;;;;14.28;12.88;;;;;;;21.13;80.76;100266.69;2067543;84;21005;-69
2022/08/13 11:06:06;;;;;;;14.68;13.22;;;;;;;21.22;80.58;100267.16;2066836;84;20970;-70
2022/08/13 11:09:08;;;;;;;17.05;15.38;;;;;;;21.31;80.76;100265.75;2087345;84;21049;-69
2022/08/13 11:12:10;;;;;;;16.70;15.08;;;;;;;21.43;80.50;100272.56;2066879;84;20970;-69
2022/08/13 11:15:11;;;;;;;17.70;15.83;;;;;;;21.46;80.41;100268.86;2065555;85;21613;-69
2022/08/13 11:18:13;;;;;;;16.75;15.15;;;;;;;21.45;80.20;100260.45;2068088;84;21634;-69
2022/08/13 11:21:14;;;;;;;17.92;15.80;;;;;;;21.54;80.16;100264.15;2065637;84;21689;-69
2022/08/13 11:24:15;;;;;;;18.60;16.82;;;;;;;21.54;79.64;100254.70;2064955;85;21033;-69
2022/08/13 11:27:18;;;;;;;19.70;16.20;;;;;;;21.62;79.92;100255.70;2057393;85;21025;-70
2022/08/13 11:30:21;;;;;;;21.17;17.00;;;;;;;21.81;79.97;100245.05;2058334;85;21609;-69
2022/08/13 11:33:25;;;;;;;19.77;16.82;;;;;;;22.06;79.45;100238.54;2061898;85;21609;-70
2022/08/13 11:36:26;;;;;;;19.07;17.27;;;;;;;22.26;78.79;100239.50;2058045;85;20975;-69
2022/08/13 11:39:27;;;;;;;19.35;17.20;;;;;;;22.37;77.53;100236.75;2032485;85;21075;-69
2022/08/13 11:42:29;;;;;;;18.20;16.50;;;;;;;22.57;77.57;100231.42;2058495;85;21005;-69
2022/08/13 11:45:31;;;;;;;20.37;18.17;;;;;;;22.87;78.14;100231.14;2059063;85;21099;-69
2022/08/13 11:48:32;;;;;;;18.75;16.82;;;;;;;23.19;76.74;100227.34;2059872;85;20986;-69
2022/08/13 11:51:33;;;;;;;20.08;18.10;;;;;;;23.25;74.87;100225.53;2059028;85;21008;-70
2022/08/13 11:54:34;;;;;;;19.25;17.35;;;;;;;23.35;74.66;100231.66;2058274;85;21024;-71
2022/08/13 11:57:36;;;;;;;20.48;18.30;;;;;;;23.44;74.96;100228.26;2059482;85;21047;-70
2022/08/13 12:00:40;;;;;;;18.77;16.93;;;;;;;23.59;74.59;100228.19;2063722;85;20977;-69
2022/08/13 12:03:41;;;;;;;20.10;18.00;;;;;;;23.69;73.92;100226.98;2055631;85;21047;-68
2022/08/13 12:06:43;;;;;;;18.90;16.97;;;;;;;23.57;72.34;100223.03;2062909;85;20986;-68
2022/08/13 12:09:44;;;;;;;19.37;17.67;;;;;;;23.50;72.82;100218.32;2063673;85;21019;-68
2022/08/13 12:12:46;;;;;;;20.00;17.87;;;;;;;23.45;72.29;100223.15;2058514;85;21454;-68
2022/08/13 12:15:47;;;;;;;17.90;15.95;;;;;;;23.46;72.33;100221.25;2058933;85;21000;-68
2022/08/13 12:18:48;;;;;;;19.65;17.75;;;;;;;23.65;72.50;100216.34;2060142;85;21170;-69
2022/08/13 12:21:49;;;;;;;21.75;19.00;;;;;;;23.69;71.60;100226.98;2061250;85;21443;-68
2022/08/13 12:24:52;;;;;;;19.48;17.67;;;;;;;23.74;72.00;100218.95;2051584;85;21037;-68
2022/08/13 12:28:20;;;;;;;20.45;17.30;;;;;;;23.76;71.56;100222.21;2055142;85;20988;-68
2022/08/13 12:31:20;;;;;;;21.10;19.00;;;;;;;23.84;71.45;100221.77;2053614;85;20976;-69
2022/08/13 12:34:22;;;;;;;22.20;19.85;;;;;;;23.96;71.43;100217.58;2053535;85;21547;-69
2022/08/13 12:37:23;;;;;;;19.65;17.60;;;;;;;23.99;70.53;100218.45;2058719;85;21123;-69
2022/08/13 12:40:24;;;;;;;20.05;18.05;;;;;;;24.05;70.93;100210.66;2057496;85;21012;-70
2022/08/13 12:43:26;;;;;;;20.75;18.65;;;;;;;24.19;70.59;100207.02;2052383;85;21472;-69
2022/08/13 12:46:27;;;;;;;20.23;18.23;;;;;;;24.31;70.43;100209.58;2053361;85;21067;-69
2022/08/13 12:49:28;;;;;;;19.48;17.62;;;;;;;24.51;70.35;100203.03;2055962;85;21577;-69
2022/08/13 12:52:30;;;;;;;20.45;18.40;;;;;;;24.56;69.79;100203.08;2054280;85;21107;-69
2022/08/13 12:55:34;;;;;;;20.48;18.67;;;;;;;24.77;69.67;100194.57;2055338;85;21046;-70
2022/08/13 12:58:35;;;;;;;20.82;18.67;;;;;;;24.90;68.69;100182.48;2055300;85;21001;-70
2022/08/13 13:01:37;;;;;;;20.85;18.70;;;;;;;24.82;68.37;100189.19;2057953;85;20961;-69
2022/08/13 13:04:41;;;;;;;19.92;17.87;;;;;;;24.86;68.66;100185.95;2054908;85;21023;-71
2022/08/13 13:07:47;;;;;;;19.52;17.62;;;;;;;25.02;68.49;100194.50;2058794;85;21065;-69
2022/08/13 13:10:50;;;;;;;20.17;18.25;;;;;;;25.03;67.95;100190.18;2057682;85;21060;-70
2022/08/13 13:13:52;;;;;;;19.77;17.80;;;;;;;25.07;67.66;100186.94;2054164;85;21523;-69
2022/08/13 13:16:53;;;;;;;19.27;17.12;;;;;;;25.10;67.21;100183.16;2057444;85;21058;-72
2022/08/13 13:19:54;;;;;;;20.35;18.30;;;;;;;25.03;67.36;100179.33;2056397;85;20984;-69
2022/08/13 13:22:56;;;;;;;18.57;16.77;;;;;;;25.11;67.47;100178.54;2059300;85;21572;-70
2022/08/13 13:25:58;;;;;;;19.50;17.48;;;;;;;25.17;67.29;100174.80;2055278;85;21119;-68
2022/08/13 13:28:59;;;;;;;17.52;15.83;;;;;;;25.23;66.89;100173.23;2059499;85;21358;-69
2022/08/13 13:32:03;;;;;;;19.52;17.35;;;;;;;25.34;66.96;100167.84;2062721;85;20997;-72
2022/08/13 13:35:04;;;;;;;16.85;15.15;;;;;;;25.46;66.80;100169.83;2060861;85;21609;-69
2022/08/13 13:38:07;;;;;;;16.73;14.80;;;;;;;25.54;66.63;100172.05;2056872;85;21053;-69
2022/08/13 13:41:08;;;;;;;15.28;13.78;;;;;;;25.50;66.24;100177.16;2058006;85;21059;-71
2022/08/13 13:44:09;;;;;;;15.60;13.88;;;;;;;25.49;66.29;100180.97;2060658;85;21432;-68
2022/08/13 13:47:10;;;;;;;14.33;12.93;;;;;;;25.54;66.40;100173.92;2060746;85;21047;-69
2022/08/13 13:50:12;;;;;;;15.03;12.45;;;;;;;25.54;65.57;100176.63;2058509;85;21016;-69
2022/08/13 13:53:13;;;;;;;15.15;12.88;;;;;;;25.47;65.05;100175.52;2059171;85;21566;-69
2022/08/13 13:56:17;;;;;;;13.25;11.83;;;;;;;25.15;64.93;100175.08;2058052;85;21576;-69
2022/08/13 13:59:18;;;;;;;12.90;11.60;;;;;;;24.87;64.82;100172.14;2057823;85;21469;-68
2022/08/13 14:02:20;;;;;;;13.65;12.25;;;;;;;24.78;65.09;100176.42;2060526;85;21068;-69
2022/08/13 14:05:22;;;;;;;13.43;11.90;;;;;;;24.69;65.15;100168.45;2061666;85;21053;-69
2022/08/13 14:08:24;;;;;;;13.25;11.78;;;;;;;24.78;65.17;100165.56;2057934;85;21027;-69
2022/08/13 14:11:26;;;;;;;14.43;12.05;;;;;;;24.75;65.46;100160.63;2064556;85;20969;-68
2022/08/13 14:14:27;;;;;;;12.88;11.63;;;;;;;24.75;65.50;100154.70;2058152;85;21064;-68